Warsaw, NY (14569)

7:29 AM EST on February 27, 2015 (GMT -0500)
The Center Perry | Change Station
CLOSE
Current Station
Personal Weather Station
Location: Perry, NY
Elevation: 1358 ft
Nearby Weather Stations

Elev 1358 ft 42.72 °N, 78.00 °W | Updated 1 minute ago

Partly Cloudy
Partly Cloudy
0.1 °F
Feels Like -7 °F
N
3.1
Wind Variable Wind from WSW

Today
High -- | Low -- °F
--% Chance of Precip.
Yesterday
High -- | Low -- °F
Precip. -- in
6:52 AM 5:59 PM
Waxing Gibbous, 68% visible
Pressure 30.45 in
Visibility 10.0 miles
Clouds Few 4200 ft
Windchill -7 °F
Dew Point -4 °F
Humidity 83%
Rainfall 0.00 in
Snow Depth Not available.
UV 0 out of 12
Pollen .40 out of 12
Air Quality Not available.
Flu Activity Not available.
METAR KDSV 271154Z AUTO 00000KT 10SM FEW042 M19/M22 A3038 RMK AO2 SLP312 60000 I6000 T11941217 11133 21200 53029 $

More Conditions Fewer Conditions

Pressure 30.45 in
Visibility 10.0 miles
Clouds Few 4200 ft
Windchill -7 °F
Dew Point -4 °F
Humidity 83%
Rainfall 0.00 in
Snow Depth Not available.
UV 0 out of 12
Pollen .40 out of 12
Air Quality Not available.
Flu Activity Not available.
METAR KDSV 271154Z AUTO 00000KT 10SM FEW042 M19/M22 A3038 RMK AO2 SLP312 60000 I6000 T11941217 11133 21200 53029 $

More Conditions Fewer Conditions

10-Day Weather Forecast

Almanac

Astronomy

Feb. 27, 2015 Rise Set
Actual Time
Civil Twilight
Nautical Twilight
Astronomical Twilight
Moon
Length of Visible Light
Length of Day
Tomorrow will be .
, % of the Moon is Illuminated

Today's Extremes

State Highs State Lows

Community

WunderPhotos

Upload Photos

1,800,663 photos uploaded!

WunderBlogs® & News

Nearby

Air Quality

  Air Quality AQ Index Pollutant
Not available.

Snow Depth

Station Depth Elevation

Earthquake Activity

City Distance Mag. Time & Date
Minimum magnitude displayed is 2.5.

Coastal Water Temperatures

Place Temperature

Nearby Weather Stations